sensor_id;sensor_type;location;lat;lon;timestamp;pressure;altitude;pressure_sealevel;temperature;humidity
35307;BME280;21420;52.196;21.416;2023-03-04T00:02:21;99902.63;;;0.01;69.28
35307;BME280;21420;52.196;21.416;2023-03-04T00:04:48;99888.36;;;0.01;69.15
35307;BME280;21420;52.196;21.416;2023-03-04T00:07:15;99895.90;;;0.00;69.18
35307;BME280;21420;52.196;21.416;2023-03-04T00:09:45;99893.58;;;0.01;69.32
35307;BME280;21420;52.196;21.416;2023-03-04T00:12:12;99892.44;;;0.03;69.13
35307;BME280;21420;52.196;21.416;2023-03-04T00:14:39;99892.92;;;0.02;69.22
35307;BME280;21420;52.196;21.416;2023-03-04T00:17:06;99892.81;;;0.01;69.32
35307;BME280;21420;52.196;21.416;2023-03-04T00:19:34;99895.66;;;0.04;69.24
35307;BME280;21420;52.196;21.416;2023-03-04T00:22:02;99898.23;;;0.04;69.17
35307;BME280;21420;52.196;21.416;2023-03-04T00:24:30;99894.80;;;0.03;69.24
35307;BME280;21420;52.196;21.416;2023-03-04T00:26:58;99897.23;;;0.04;69.18
35307;BME280;21420;52.196;21.416;2023-03-04T00:29:25;99886.83;;;0.05;69.20
35307;BME280;21420;52.196;21.416;2023-03-04T00:31:52;99888.33;;;0.05;69.25
35307;BME280;21420;52.196;21.416;2023-03-04T00:34:20;99878.67;;;0.06;69.23
35307;BME280;21420;52.196;21.416;2023-03-04T00:36:47;99882.77;;;0.07;69.25
35307;BME280;21420;52.196;21.416;2023-03-04T00:39:16;99876.15;;;0.07;69.23
35307;BME280;21420;52.196;21.416;2023-03-04T00:41:43;99872.21;;;0.09;69.23
35307;BME280;21420;52.196;21.416;2023-03-04T00:44:10;99871.07;;;0.10;69.28
35307;BME280;21420;52.196;21.416;2023-03-04T00:46:37;99866.66;;;0.10;69.21
35307;BME280;21420;52.196;21.416;2023-03-04T00:49:04;99858.48;;;0.12;69.36
35307;BME280;21420;52.196;21.416;2023-03-04T00:51:31;99858.66;;;0.13;69.26
35307;BME280;21420;52.196;21.416;2023-03-04T00:53:58;99847.08;;;0.15;69.22
35307;BME280;21420;52.196;21.416;2023-03-04T00:56:26;99837.91;;;0.16;69.37
35307;BME280;21420;52.196;21.416;2023-03-04T00:58:54;99850.58;;;0.16;69.26
35307;BME280;21420;52.196;21.416;2023-03-04T01:01:21;99852.07;;;0.17;69.05
35307;BME280;21420;52.196;21.416;2023-03-04T01:03:48;99840.77;;;0.17;69.20
35307;BME280;21420;52.196;21.416;2023-03-04T01:06:15;99828.38;;;0.16;69.12
35307;BME280;21420;52.196;21.416;2023-03-04T01:08:43;99819.21;;;0.17;69.19
35307;BME280;21420;52.196;21.416;2023-03-04T01:11:09;99808.98;;;0.17;69.21
35307;BME280;21420;52.196;21.416;2023-03-04T01:13:36;99804.30;;;0.18;69.24
35307;BME280;21420;52.196;21.416;2023-03-04T01:16:03;99798.09;;;0.21;69.27
35307;BME280;21420;52.196;21.416;2023-03-04T01:18:31;99790.27;;;0.21;69.15
35307;BME280;21420;52.196;21.416;2023-03-04T01:20:58;99776.76;;;0.19;69.17
35307;BME280;21420;52.196;21.416;2023-03-04T01:23:28;99777.79;;;0.18;69.11
35307;BME280;21420;52.196;21.416;2023-03-04T01:25:54;99784.21;;;0.17;69.22
35307;BME280;21420;52.196;21.416;2023-03-04T01:28:22;99761.14;;;0.18;69.15
35307;BME280;21420;52.196;21.416;2023-03-04T01:30:49;99769.77;;;0.18;69.25
35307;BME280;21420;52.196;21.416;2023-03-04T01:33:16;99763.31;;;0.16;69.16
35307;BME280;21420;52.196;21.416;2023-03-04T01:35:42;99752.16;;;0.16;69.27
35307;BME280;21420;52.196;21.416;2023-03-04T01:38:09;99750.27;;;0.17;69.28
35307;BME280;21420;52.196;21.416;2023-03-04T01:40:37;99737.58;;;0.17;69.15
35307;BME280;21420;52.196;21.416;2023-03-04T01:43:04;99727.19;;;0.17;69.18
35307;BME280;21420;52.196;21.416;2023-03-04T01:45:32;99722.92;;;0.16;69.19
35307;BME280;21420;52.196;21.416;2023-03-04T01:47:59;99715.23;;;0.15;69.16
35307;BME280;21420;52.196;21.416;2023-03-04T01:50:30;99708.13;;;0.15;69.22
35307;BME280;21420;52.196;21.416;2023-03-04T01:52:57;99711.25;;;0.15;69.31
35307;BME280;21420;52.196;21.416;2023-03-04T01:55:26;99702.66;;;0.17;69.11
35307;BME280;21420;52.196;21.416;2023-03-04T01:57:54;99709.96;;;0.16;69.20
35307;BME280;21420;52.196;21.416;2023-03-04T02:02:56;99691.95;;;0.17;69.17
35307;BME280;21420;52.196;21.416;2023-03-04T02:05:24;99692.46;;;0.15;69.02
35307;BME280;21420;52.196;21.416;2023-03-04T02:07:52;99695.48;;;0.15;69.15
35307;BME280;21420;52.196;21.416;2023-03-04T02:10:20;99673.17;;;0.17;69.19
35307;BME280;21420;52.196;21.416;2023-03-04T02:12:48;99687.88;;;0.16;69.07
35307;BME280;21420;52.196;21.416;2023-03-04T02:15:16;99679.39;;;0.14;69.00
35307;BME280;21420;52.196;21.416;2023-03-04T02:17:43;99671.08;;;0.11;69.03
35307;BME280;21420;52.196;21.416;2023-03-04T02:20:25;99668.51;;;0.08;69.20
35307;BME280;21420;52.196;21.416;2023-03-04T02:25:34;99675.83;;;0.08;69.10
35307;BME280;21420;52.196;21.416;2023-03-04T02:28:02;99661.18;;;0.09;69.03
35307;BME280;21420;52.196;21.416;2023-03-04T02:30:29;99660.83;;;0.06;69.15
35307;BME280;21420;52.196;21.416;2023-03-04T02:32:58;99666.70;;;0.05;69.34
35307;BME280;21420;52.196;21.416;2023-03-04T02:35:25;99665.73;;;0.05;69.19
35307;BME280;21420;52.196;21.416;2023-03-04T02:37:52;99671.30;;;0.04;69.13
35307;BME280;21420;52.196;21.416;2023-03-04T02:40:29;99675.56;;;0.03;69.27
35307;BME280;21420;52.196;21.416;2023-03-04T02:42:59;99676.56;;;0.04;69.37
35307;BME280;21420;52.196;21.416;2023-03-04T02:45:33;99666.58;;;0.06;69.44
35307;BME280;21420;52.196;21.416;2023-03-04T02:48:02;99669.33;;;0.06;69.52
35307;BME280;21420;52.196;21.416;2023-03-04T02:50:33;99665.33;;;0.08;69.44
35307;BME280;21420;52.196;21.416;2023-03-04T02:53:00;99664.89;;;0.09;69.33
35307;BME280;21420;52.196;21.416;2023-03-04T02:55:27;99669.20;;;0.09;69.57
35307;BME280;21420;52.196;21.416;2023-03-04T02:57:55;99663.75;;;0.10;69.56
35307;BME280;21420;52.196;21.416;2023-03-04T03:00:22;99653.92;;;0.13;69.51
35307;BME280;21420;52.196;21.416;2023-03-04T03:02:50;99654.61;;;0.15;69.50
35307;BME280;21420;52.196;21.416;2023-03-04T03:05:17;99648.46;;;0.15;69.48
35307;BME280;21420;52.196;21.416;2023-03-04T03:07:44;99647.58;;;0.17;69.48
35307;BME280;21420;52.196;21.416;2023-03-04T03:10:11;99651.02;;;0.19;69.55
35307;BME280;21420;52.196;21.416;2023-03-04T03:12:39;99652.83;;;0.21;69.48
35307;BME280;21420;52.196;21.416;2023-03-04T03:15:07;99647.33;;;0.22;69.44
35307;BME280;21420;52.196;21.416;2023-03-04T03:17:34;99644.22;;;0.25;69.63
35307;BME280;21420;52.196;21.416;2023-03-04T03:20:02;99634.42;;;0.29;69.65
35307;BME280;21420;52.196;21.416;2023-03-04T03:22:29;99637.46;;;0.32;69.61
35307;BME280;21420;52.196;21.416;2023-03-04T03:24:56;99636.52;;;0.34;69.61
35307;BME280;21420;52.196;21.416;2023-03-04T03:27:23;99634.82;;;0.38;69.50
35307;BME280;21420;52.196;21.416;2023-03-04T03:29:51;99638.20;;;0.39;69.50
35307;BME280;21420;52.196;21.416;2023-03-04T03:32:18;99633.27;;;0.42;69.67
35307;BME280;21420;52.196;21.416;2023-03-04T03:34:47;99623.85;;;0.46;69.63
35307;BME280;21420;52.196;21.416;2023-03-04T03:37:14;99624.31;;;0.49;69.58
35307;BME280;21420;52.196;21.416;2023-03-04T03:39:44;99623.99;;;0.52;69.63
35307;BME280;21420;52.196;21.416;2023-03-04T03:42:10;99617.00;;;0.56;69.65
35307;BME280;21420;52.196;21.416;2023-03-04T03:44:37;99618.52;;;0.59;69.68
35307;BME280;21420;52.196;21.416;2023-03-04T03:47:04;99622.84;;;0.63;69.52
35307;BME280;21420;52.196;21.416;2023-03-04T03:49:31;99614.23;;;0.62;69.58
35307;BME280;21420;52.196;21.416;2023-03-04T03:51:58;99612.11;;;0.63;69.41
35307;BME280;21420;52.196;21.416;2023-03-04T03:54:25;99610.96;;;0.64;69.41
35307;BME280;21420;52.196;21.416;2023-03-04T03:56:51;99611.83;;;0.65;69.54
35307;BME280;21420;52.196;21.416;2023-03-04T03:59:18;99609.52;;;0.65;69.54
35307;BME280;21420;52.196;21.416;2023-03-04T04:01:45;99605.95;;;0.65;69.62
35307;BME280;21420;52.196;21.416;2023-03-04T04:04:12;99599.30;;;0.70;69.63
35307;BME280;21420;52.196;21.416;2023-03-04T04:06:39;99598.95;;;0.73;69.65
35307;BME280;21420;52.196;21.416;2023-03-04T04:09:06;99600.03;;;0.73;69.60
35307;BME280;21420;52.196;21.416;2023-03-04T04:11:33;99597.05;;;0.73;69.44
35307;BME280;21420;52.196;21.416;2023-03-04T04:14:00;99599.78;;;0.75;69.61
35307;BME280;21420;52.196;21.416;2023-03-04T04:16:27;99594.41;;;0.78;69.67
35307;BME280;21420;52.196;21.416;2023-03-04T04:18:54;99591.14;;;0.81;69.56
35307;BME280;21420;52.196;21.416;2023-03-04T04:21:20;99592.36;;;0.82;69.54
35307;BME280;21420;52.196;21.416;2023-03-04T04:23:47;99582.48;;;0.82;69.65
35307;BME280;21420;52.196;21.416;2023-03-04T04:26:14;99581.45;;;0.84;69.74
35307;BME280;21420;52.196;21.416;2023-03-04T04:28:41;99586.98;;;0.85;69.78
35307;BME280;21420;52.196;21.416;2023-03-04T04:31:08;99587.96;;;0.88;69.61
35307;BME280;21420;52.196;21.416;2023-03-04T04:33:36;99587.16;;;0.93;69.46
35307;BME280;21420;52.196;21.416;2023-03-04T04:36:03;99588.15;;;0.91;69.55
35307;BME280;21420;52.196;21.416;2023-03-04T04:38:31;99581.88;;;0.92;69.62
35307;BME280;21420;52.196;21.416;2023-03-04T04:40:58;99583.19;;;0.94;69.66
35307;BME280;21420;52.196;21.416;2023-03-04T04:43:25;99572.85;;;0.98;69.73
35307;BME280;21420;52.196;21.416;2023-03-04T04:45:52;99577.68;;;0.99;69.78
35307;BME280;21420;52.196;21.416;2023-03-04T04:48:19;99582.52;;;1.00;69.79
35307;BME280;21420;52.196;21.416;2023-03-04T04:50:46;99579.44;;;1.01;69.65
35307;BME280;21420;52.196;21.416;2023-03-04T04:53:19;99571.13;;;1.01;69.66
35307;BME280;21420;52.196;21.416;2023-03-04T04:55:45;99565.09;;;1.05;69.85
35307;BME280;21420;52.196;21.416;2023-03-04T04:58:12;99569.68;;;1.12;69.88
35307;BME280;21420;52.196;21.416;2023-03-04T05:00:39;99565.73;;;1.15;69.83
35307;BME280;21420;52.196;21.416;2023-03-04T05:03:06;99572.79;;;1.17;69.76
35307;BME280;21420;52.196;21.416;2023-03-04T05:05:33;99575.00;;;1.17;69.66
35307;BME280;21420;52.196;21.416;2023-03-04T05:08:00;99572.38;;;1.15;69.64
35307;BME280;21420;52.196;21.416;2023-03-04T05:10:27;99563.87;;;1.14;69.48
35307;BME280;21420;52.196;21.416;2023-03-04T05:12:53;99558.89;;;1.15;69.62
35307;BME280;21420;52.196;21.416;2023-03-04T05:15:20;99561.85;;;1.16;69.78
35307;BME280;21420;52.196;21.416;2023-03-04T05:17:47;99551.13;;;1.16;69.58
35307;BME280;21420;52.196;21.416;2023-03-04T05:20:14;99553.12;;;1.15;69.55
35307;BME280;21420;52.196;21.416;2023-03-04T05:22:41;99548.29;;;1.17;69.62
35307;BME280;21420;52.196;21.416;2023-03-04T05:25:08;99550.88;;;1.17;69.61
35307;BME280;21420;52.196;21.416;2023-03-04T05:27:36;99549.70;;;1.17;69.69
35307;BME280;21420;52.196;21.416;2023-03-04T05:30:03;99545.95;;;1.15;69.60
35307;BME280;21420;52.196;21.416;2023-03-04T05:32:30;99549.64;;;1.17;69.61
35307;BME280;21420;52.196;21.416;2023-03-04T05:34:57;99548.73;;;1.17;69.58
35307;BME280;21420;52.196;21.416;2023-03-04T05:37:24;99544.58;;;1.17;69.59
35307;BME280;21420;52.196;21.416;2023-03-04T05:39:51;99542.24;;;1.18;69.60
35307;BME280;21420;52.196;21.416;2023-03-04T05:42:18;99539.38;;;1.18;69.54
35307;BME280;21420;52.196;21.416;2023-03-04T05:44:44;99542.06;;;1.19;69.61
35307;BME280;21420;52.196;21.416;2023-03-04T05:47:11;99545.83;;;1.20;69.50
35307;BME280;21420;52.196;21.416;2023-03-04T05:49:38;99536.20;;;1.21;69.45
35307;BME280;21420;52.196;21.416;2023-03-04T05:52:06;99536.79;;;1.22;69.61
35307;BME280;21420;52.196;21.416;2023-03-04T05:54:33;99530.13;;;1.23;69.63
35307;BME280;21420;52.196;21.416;2023-03-04T05:57:00;99531.64;;;1.23;69.68
35307;BME280;21420;52.196;21.416;2023-03-04T05:59:28;99539.58;;;1.25;69.60
35307;BME280;21420;52.196;21.416;2023-03-04T06:01:55;99533.06;;;1.28;69.59
35307;BME280;21420;52.196;21.416;2023-03-04T06:04:22;99523.48;;;1.31;69.63
35307;BME280;21420;52.196;21.416;2023-03-04T06:06:48;99519.87;;;1.31;69.68
35307;BME280;21420;52.196;21.416;2023-03-04T06:09:15;99521.10;;;1.32;69.52
35307;BME280;21420;52.196;21.416;2023-03-04T06:11:42;99524.58;;;1.33;69.57
35307;BME280;21420;52.196;21.416;2023-03-04T06:14:09;99513.19;;;1.34;69.47
35307;BME280;21420;52.196;21.416;2023-03-04T06:16:39;99509.64;;;1.33;69.43
35307;BME280;21420;52.196;21.416;2023-03-04T06:19:06;99500.79;;;1.32;69.50
35307;BME280;21420;52.196;21.416;2023-03-04T06:21:33;99504.34;;;1.34;69.45
35307;BME280;21420;52.196;21.416;2023-03-04T06:23:59;99500.67;;;1.36;69.42
35307;BME280;21420;52.196;21.416;2023-03-04T06:26:26;99497.48;;;1.37;69.48
35307;BME280;21420;52.196;21.416;2023-03-04T06:28:53;99489.50;;;1.37;69.56
35307;BME280;21420;52.196;21.416;2023-03-04T06:31:22;99490.31;;;1.36;69.53
35307;BME280;21420;52.196;21.416;2023-03-04T06:33:49;99486.81;;;1.36;69.52
35307;BME280;21420;52.196;21.416;2023-03-04T06:36:16;99490.63;;;1.37;69.50
35307;BME280;21420;52.196;21.416;2023-03-04T06:38:44;99488.66;;;1.39;69.46
35307;BME280;21420;52.196;21.416;2023-03-04T06:41:12;99492.27;;;1.41;69.45
35307;BME280;21420;52.196;21.416;2023-03-04T06:43:39;99494.42;;;1.42;69.57
35307;BME280;21420;52.196;21.416;2023-03-04T06:46:07;99496.50;;;1.43;69.60
35307;BME280;21420;52.196;21.416;2023-03-04T06:48:34;99495.36;;;1.45;69.47
35307;BME280;21420;52.196;21.416;2023-03-04T06:51:08;99500.66;;;1.43;69.40
35307;BME280;21420;52.196;21.416;2023-03-04T06:53:36;99506.88;;;1.43;69.53
35307;BME280;21420;52.196;21.416;2023-03-04T06:56:04;99499.90;;;1.44;69.49
35307;BME280;21420;52.196;21.416;2023-03-04T06:58:32;99496.36;;;1.46;69.59
35307;BME280;21420;52.196;21.416;2023-03-04T07:01:14;99497.56;;;1.47;69.36
35307;BME280;21420;52.196;21.416;2023-03-04T07:03:42;99488.47;;;1.47;69.38
35307;BME280;21420;52.196;21.416;2023-03-04T07:06:14;99491.40;;;1.49;69.45
35307;BME280;21420;52.196;21.416;2023-03-04T07:08:41;99499.24;;;1.50;69.49
35307;BME280;21420;52.196;21.416;2023-03-04T07:11:09;99494.40;;;1.53;69.55
35307;BME280;21420;52.196;21.416;2023-03-04T07:13:37;99496.57;;;1.55;69.47
35307;BME280;21420;52.196;21.416;2023-03-04T07:16:08;99493.14;;;1.56;69.47
35307;BME280;21420;52.196;21.416;2023-03-04T07:18:36;99494.23;;;1.56;69.41
35307;BME280;21420;52.196;21.416;2023-03-04T07:21:04;99493.64;;;1.56;69.42
35307;BME280;21420;52.196;21.416;2023-03-04T07:23:31;99498.85;;;1.57;69.46
35307;BME280;21420;52.196;21.416;2023-03-04T07:25:58;99494.11;;;1.60;69.51
35307;BME280;21420;52.196;21.416;2023-03-04T07:28:25;99491.49;;;1.61;69.53
35307;BME280;21420;52.196;21.416;2023-03-04T07:30:52;99486.95;;;1.62;69.46
35307;BME280;21420;52.196;21.416;2023-03-04T07:33:20;99486.73;;;1.65;69.49
35307;BME280;21420;52.196;21.416;2023-03-04T07:35:46;99483.09;;;1.66;69.37
35307;BME280;21420;52.196;21.416;2023-03-04T07:38:13;99484.83;;;1.66;69.42
35307;BME280;21420;52.196;21.416;2023-03-04T07:40:40;99474.98;;;1.68;69.45
35307;BME280;21420;52.196;21.416;2023-03-04T07:43:11;99472.48;;;1.71;69.42
35307;BME280;21420;52.196;21.416;2023-03-04T07:45:38;99476.56;;;1.72;69.48
35307;BME280;21420;52.196;21.416;2023-03-04T07:48:05;99476.98;;;1.73;69.46
35307;BME280;21420;52.196;21.416;2023-03-04T07:50:32;99470.70;;;1.74;69.40
35307;BME280;21420;52.196;21.416;2023-03-04T07:52:59;99474.91;;;1.74;69.42
35307;BME280;21420;52.196;21.416;2023-03-04T07:55:26;99473.15;;;1.76;69.47
35307;BME280;21420;52.196;21.416;2023-03-04T07:57:53;99467.14;;;1.79;69.61
35307;BME280;21420;52.196;21.416;2023-03-04T08:00:20;99462.77;;;1.80;69.35
35307;BME280;21420;52.196;21.416;2023-03-04T08:02:47;99466.87;;;1.80;69.52
35307;BME280;21420;52.196;21.416;2023-03-04T08:05:14;99467.17;;;1.81;69.43
35307;BME280;21420;52.196;21.416;2023-03-04T08:07:41;99461.97;;;1.81;69.32
35307;BME280;21420;52.196;21.416;2023-03-04T08:10:09;99456.14;;;1.82;69.33
35307;BME280;21420;52.196;21.416;2023-03-04T08:12:36;99467.55;;;1.83;69.43
35307;BME280;21420;52.196;21.416;2023-03-04T08:15:03;99459.63;;;1.86;69.36
35307;BME280;21420;52.196;21.416;2023-03-04T08:17:30;99458.58;;;1.90;69.35
35307;BME280;21420;52.196;21.416;2023-03-04T08:19:57;99456.86;;;1.92;69.35
35307;BME280;21420;52.196;21.416;2023-03-04T08:22:24;99463.36;;;1.91;69.39
35307;BME280;21420;52.196;21.416;2023-03-04T08:24:51;99446.95;;;1.93;69.35
35307;BME280;21420;52.196;21.416;2023-03-04T08:27:18;99454.52;;;1.93;69.30
35307;BME280;21420;52.196;21.416;2023-03-04T08:29:45;99453.52;;;1.94;69.39
35307;BME280;21420;52.196;21.416;2023-03-04T08:32:12;99445.98;;;1.96;69.24
35307;BME280;21420;52.196;21.416;2023-03-04T08:34:39;99455.61;;;1.95;69.45
35307;BME280;21420;52.196;21.416;2023-03-04T08:37:06;99454.09;;;1.95;69.43
35307;BME280;21420;52.196;21.416;2023-03-04T08:39:33;99447.48;;;1.97;69.30
35307;BME280;21420;52.196;21.416;2023-03-04T08:42:01;99445.79;;;1.97;69.28
35307;BME280;21420;52.196;21.416;2023-03-04T08:44:28;99452.63;;;1.95;69.26
35307;BME280;21420;52.196;21.416;2023-03-04T08:46:55;99447.34;;;1.96;69.36
35307;BME280;21420;52.196;21.416;2023-03-04T08:49:22;99441.98;;;1.98;69.36
35307;BME280;21420;52.196;21.416;2023-03-04T08:51:49;99447.64;;;2.00;69.41
35307;BME280;21420;52.196;21.416;2023-03-04T08:54:16;99451.74;;;2.02;69.32
35307;BME280;21420;52.196;21.416;2023-03-04T08:56:43;99452.42;;;2.02;69.27
35307;BME280;21420;52.196;21.416;2023-03-04T08:59:10;99440.77;;;2.10;69.47
35307;BME280;21420;52.196;21.416;2023-03-04T09:01:37;99447.64;;;2.35;69.75
35307;BME280;21420;52.196;21.416;2023-03-04T09:04:04;99437.02;;;2.44;69.60
35307;BME280;21420;52.196;21.416;2023-03-04T09:06:31;99429.60;;;2.47;69.49
35307;BME280;21420;52.196;21.416;2023-03-04T09:08:58;99436.98;;;2.57;69.69
35307;BME280;21420;52.196;21.416;2023-03-04T09:11:25;99439.52;;;2.63;69.46
35307;BME280;21420;52.196;21.416;2023-03-04T09:13:52;99435.74;;;2.67;69.33
35307;BME280;21420;52.196;21.416;2023-03-04T09:16:20;99422.27;;;2.74;69.54
35307;BME280;21420;52.196;21.416;2023-03-04T09:18:47;99415.65;;;2.82;69.46
35307;BME280;21420;52.196;21.416;2023-03-04T09:21:14;99413.80;;;2.91;69.45
35307;BME280;21420;52.196;21.416;2023-03-04T09:23:41;99414.31;;;2.95;69.40
35307;BME280;21420;52.196;21.416;2023-03-04T09:26:21;99406.48;;;3.15;69.69
35307;BME280;21420;52.196;21.416;2023-03-04T09:28:54;99405.11;;;3.23;69.38
35307;BME280;21420;52.196;21.416;2023-03-04T09:31:22;99399.82;;;3.33;69.51
35307;BME280;21420;52.196;21.416;2023-03-04T09:33:52;99404.31;;;3.57;69.90
35307;BME280;21420;52.196;21.416;2023-03-04T09:36:19;99403.95;;;4.01;70.23
35307;BME280;21420;52.196;21.416;2023-03-04T09:38:46;99402.18;;;4.00;69.54
35307;BME280;21420;52.196;21.416;2023-03-04T09:41:26;99394.20;;;3.93;69.21
35307;BME280;21420;52.196;21.416;2023-03-04T09:43:55;99403.98;;;3.73;68.66
35307;BME280;21420;52.196;21.416;2023-03-04T09:46:33;99403.16;;;3.46;68.30
35307;BME280;21420;52.196;21.416;2023-03-04T09:49:02;99388.30;;;3.26;68.23
35307;BME280;21420;52.196;21.416;2023-03-04T09:54:12;99391.76;;;3.12;68.47
35307;BME280;21420;52.196;21.416;2023-03-04T09:56:41;99381.91;;;3.04;68.25
35307;BME280;21420;52.196;21.416;2023-03-04T10:01:45;99398.91;;;2.85;68.41
35307;BME280;21420;52.196;21.416;2023-03-04T10:07:17;99385.39;;;2.72;68.33
35307;BME280;21420;52.196;21.416;2023-03-04T10:09:54;99396.05;;;2.65;68.25
35307;BME280;21420;52.196;21.416;2023-03-04T10:12:24;99389.75;;;2.59;68.52
35307;BME280;21420;52.196;21.416;2023-03-04T10:17:35;99396.82;;;2.56;68.63
35307;BME280;21420;52.196;21.416;2023-03-04T10:22:52;99381.86;;;2.50;68.60
35307;BME280;21420;52.196;21.416;2023-03-04T10:30:47;99376.83;;;2.48;68.74
35307;BME280;21420;52.196;21.416;2023-03-04T10:33:17;99382.20;;;2.49;68.80
35307;BME280;21420;52.196;21.416;2023-03-04T10:36:35;99380.95;;;2.50;68.63
35307;BME280;21420;52.196;21.416;2023-03-04T10:38:36;99375.23;;;2.49;68.70
35307;BME280;21420;52.196;21.416;2023-03-04T10:41:20;99367.38;;;2.45;68.71
35307;BME280;21420;52.196;21.416;2023-03-04T10:46:24;99355.54;;;2.45;68.68
35307;BME280;21420;52.196;21.416;2023-03-04T10:48:53;99358.86;;;2.47;68.82
35307;BME280;21420;52.196;21.416;2023-03-04T10:51:26;99355.20;;;2.48;68.58
35307;BME280;21420;52.196;21.416;2023-03-04T10:56:51;99347.56;;;2.47;68.78
35307;BME280;21420;52.196;21.416;2023-03-04T11:02:00;99345.23;;;2.52;68.88
35307;BME280;21420;52.196;21.416;2023-03-04T11:04:32;99339.60;;;2.56;68.93
35307;BME280;21420;52.196;21.416;2023-03-04T11:07:00;99347.09;;;2.56;68.89
35307;BME280;21420;52.196;21.416;2023-03-04T11:09:29;99351.09;;;2.53;68.80
35307;BME280;21420;52.196;21.416;2023-03-04T11:12:01;99344.79;;;2.50;68.88
35307;BME280;21420;52.196;21.416;2023-03-04T11:14:35;99354.40;;;2.47;68.77
35307;BME280;21420;52.196;21.416;2023-03-04T11:17:24;99346.82;;;2.44;68.86
35307;BME280;21420;52.196;21.416;2023-03-04T11:22:31;99349.13;;;2.50;68.91
35307;BME280;21420;52.196;21.416;2023-03-04T11:25:02;99346.59;;;2.49;69.02
35307;BME280;21420;52.196;21.416;2023-03-04T11:27:44;99343.73;;;2.49;69.04
35307;BME280;21420;52.196;21.416;2023-03-04T11:30:46;99346.73;;;2.50;69.09
35307;BME280;21420;52.196;21.416;2023-03-04T11:33:25;99338.95;;;2.50;69.14
35307;BME280;21420;52.196;21.416;2023-03-04T11:38:46;99321.55;;;2.65;69.34
35307;BME280;21420;52.196;21.416;2023-03-04T11:41:32;99324.59;;;2.78;69.44
35307;BME280;21420;52.196;21.416;2023-03-04T11:44:04;99322.55;;;2.82;69.24
35307;BME280;21420;52.196;21.416;2023-03-04T11:52:22;99315.10;;;2.68;69.03
35307;BME280;21420;52.196;21.416;2023-03-04T12:06:43;99308.02;;;2.42;69.24
35307;BME280;21420;52.196;21.416;2023-03-04T12:09:38;99300.77;;;2.42;69.33
35307;BME280;21420;52.196;21.416;2023-03-04T12:23:42;99299.73;;;2.64;69.63
35307;BME280;21420;52.196;21.416;2023-03-04T12:34:37;99299.67;;;2.85;69.74
35307;BME280;21420;52.196;21.416;2023-03-04T12:37:19;99293.34;;;2.88;69.80
35307;BME280;21420;52.196;21.416;2023-03-04T12:43:05;99277.58;;;2.99;69.90
35307;BME280;21420;52.196;21.416;2023-03-04T12:45:56;99277.64;;;3.03;69.78
35307;BME280;21420;52.196;21.416;2023-03-04T12:54:36;99283.88;;;3.27;69.73
35307;BME280;21420;52.196;21.416;2023-03-04T12:57:23;99278.98;;;3.41;69.83
35307;BME280;21420;52.196;21.416;2023-03-04T13:03:07;99272.13;;;3.69;69.90
35307;BME280;21420;52.196;21.416;2023-03-04T13:05:59;99270.05;;;3.89;69.97
35307;BME280;21420;52.196;21.416;2023-03-04T13:08:36;99271.23;;;4.05;69.95
35307;BME280;21420;52.196;21.416;2023-03-04T13:16:43;99271.64;;;4.23;69.72
35307;BME280;21420;52.196;21.416;2023-03-04T13:24:53;99271.96;;;4.73;69.82
35307;BME280;21420;52.196;21.416;2023-03-04T13:32:58;99270.40;;;6.16;71.80
35307;BME280;21420;52.196;21.416;2023-03-04T13:35:58;99266.55;;;6.88;71.99
35307;BME280;21420;52.196;21.416;2023-03-04T13:43:46;99259.01;;;7.94;71.88
35307;BME280;21420;52.196;21.416;2023-03-04T13:57:14;99289.48;;;7.80;68.46
35307;BME280;21420;52.196;21.416;2023-03-04T13:59:47;99274.17;;;6.18;66.42
35307;BME280;21420;52.196;21.416;2023-03-04T14:02:17;99268.12;;;5.14;66.18
35307;BME280;21420;52.196;21.416;2023-03-04T14:04:56;99275.17;;;4.50;66.69
35307;BME280;21420;52.196;21.416;2023-03-04T14:12:25;99252.92;;;3.43;67.26
35307;BME280;21420;52.196;21.416;2023-03-04T14:14:55;99254.28;;;3.29;67.56
35307;BME280;21420;52.196;21.416;2023-03-04T14:17:27;99255.52;;;3.27;67.91
35307;BME280;21420;52.196;21.416;2023-03-04T14:19:55;99243.52;;;3.35;68.15
35307;BME280;21420;52.196;21.416;2023-03-04T14:22:31;99244.50;;;3.48;68.59
35307;BME280;21420;52.196;21.416;2023-03-04T14:27:29;99263.67;;;3.42;68.18
35307;BME280;21420;52.196;21.416;2023-03-04T14:30:22;99267.77;;;3.37;68.22
35307;BME280;21420;52.196;21.416;2023-03-04T14:33:07;99265.23;;;3.44;68.48
35307;BME280;21420;52.196;21.416;2023-03-04T14:35:35;99265.57;;;3.66;68.83
35307;BME280;21420;52.196;21.416;2023-03-04T14:38:27;99265.20;;;4.01;69.05
35307;BME280;21420;52.196;21.416;2023-03-04T14:41:03;99265.33;;;4.28;68.77
35307;BME280;21420;52.196;21.416;2023-03-04T14:43:42;99261.35;;;4.44;68.62
35307;BME280;21420;52.196;21.416;2023-03-04T14:46:14;99258.94;;;4.65;68.77
35307;BME280;21420;52.196;21.416;2023-03-04T14:48:48;99265.73;;;4.91;68.93
35307;BME280;21420;52.196;21.416;2023-03-04T14:51:29;99269.37;;;5.12;68.82
35307;BME280;21420;52.196;21.416;2023-03-04T14:53:57;99263.91;;;5.25;68.57
35307;BME280;21420;52.196;21.416;2023-03-04T14:56:33;99269.20;;;5.35;68.54
35307;BME280;21420;52.196;21.416;2023-03-04T14:59:01;99271.05;;;5.42;68.37
35307;BME280;21420;52.196;21.416;2023-03-04T15:01:33;99280.77;;;5.45;68.26
35307;BME280;21420;52.196;21.416;2023-03-04T15:04:04;99279.98;;;5.47;68.23
35307;BME280;21420;52.196;21.416;2023-03-04T15:06:36;99282.01;;;5.51;68.19
35307;BME280;21420;52.196;21.416;2023-03-04T15:09:18;99289.98;;;5.44;67.98
35307;BME280;21420;52.196;21.416;2023-03-04T15:11:59;99289.85;;;5.34;67.94
35307;BME280;21420;52.196;21.416;2023-03-04T15:17:36;99297.30;;;4.94;67.46
35307;BME280;21420;52.196;21.416;2023-03-04T15:25:02;99312.13;;;4.32;67.37
35307;BME280;21420;52.196;21.416;2023-03-04T15:27:29;99315.77;;;4.18;67.28
35307;BME280;21420;52.196;21.416;2023-03-04T15:29:58;99303.77;;;4.08;67.29